Wind From: 11-12-2017 07:30 Until: 12-12-2017 06:00 warning for: Wind Level: Orange info button

Power and phone distribution networks may be disrupted for relatively long periods., Roofs and chimneys can be damaged. , Tree branches may break. , Vehicles can be deported. , Traffic may be disrupted, particularly on secondary roads in forest areas. Limit your trips. , Limit your speed in highway driving, especially if you drive a vehicle or hitch sensitive to wind. , Do not go for walks in forests or along the coast., In town, be vigilant against possible falling objects., Do not work on roofs and do not touch any electrical line fallen on the ground., Store or secure sensitive objects to wind or likely to be damaged., Always install power generators outside buildings. 


Meteo18 Weather Cam more information Meteo18 Weather Cam


Thunder radar more information blitzortung!


Rain radar more information rain snow radar


Visit our other weather sites:

Template documentation
and downloads

And another site



Weather Underground History page Text

Daily Summary for March 17, 2017 Units:  Both    English   Metric
« Previous Day
Next Day »
Daily Weekly Monthly Yearly Custom
  High: Low: Average:
Temperature: 52.3 °F /  11.3 °C 40.5 °F /  4.7 °C 47.5 °F /  8.6 °C
Dew Point: 47.7 °F /  8.7 °C 38.7 °F /  3.7 °C 43.9 °F /  6.6 °C
Humidity: 95 % 78 % 87 %
Wind Speed: 11 mph /  17.7 km/h - 1.7 mph /  2.7 km/h
Wind Gust: 15 mph /  24.1 km/h - -
Wind:- - West
Pressure: 30.2 in /  1022.9 hPa 30.1 in /  1019.5 hPa -
Precipitation: 0 in /  0.0 mm    
Historical Graphs
 
 
Tabular Data for March 17, 2017
Time Temperature Dew Point Pressure Wind Wind Speed Wind Gust Humidity Rainfall Rate (Hourly)
00:02 51.1 °F /  10.6 °C 45.1 °F /  7.3 °C 30.1 in /  1020.5 hPa Calm   1 mph /  1.6 km/h 80 % 0 in /  0.0 mm
00:07 51.4 °F /  10.8 °C 44.8 °F /  7.1 °C 30.1 in /  1020.5 hPa Calm   1 mph /  1.6 km/h 78 % 0 in /  0.0 mm
00:12 51.1 °F /  10.6 °C 44.8 °F /  7.1 °C 30.1 in /  1020.5 hPa Calm   1 mph /  1.6 km/h 79 % 0 in /  0.0 mm
00:22 50.2 °F /  10.1 °C 44.2 °F /  6.8 °C 30.1 in /  1020.5 hPa Calm     80 % 0 in /  0.0 mm
00:32 50 °F /  10.0 °C 44.4 °F /  6.9 °C 30.1 in /  1020.2 hPa Calm   1 mph /  1.6 km/h 81 % 0 in /  0.0 mm
00:42 50.2 °F /  10.1 °C 44.6 °F /  7.0 °C 30.1 in /  1020.2 hPa Calm   1 mph /  1.6 km/h 81 % 0 in /  0.0 mm
00:52 49.8 °F /  9.9 °C 44.6 °F /  7.0 °C 30.1 in /  1020.2 hPa Calm   1 mph /  1.6 km/h 82 % 0 in /  0.0 mm
00:57 49.8 °F /  9.9 °C 44.6 °F /  7.0 °C 30.1 in /  1020.2 hPa Calm   1 mph /  1.6 km/h 82 % 0 in /  0.0 mm
01:02 49.6 °F /  9.8 °C 44.4 °F /  6.9 °C 30.1 in /  1020.2 hPa Calm   1 mph /  1.6 km/h 82 % 0 in /  0.0 mm
01:12 49.3 °F /  9.6 °C 44.1 °F /  6.7 °C 30.1 in /  1020.2 hPa Calm   1 mph /  1.6 km/h 82 % 0 in /  0.0 mm
01:17 48.9 °F /  9.4 °C 44.1 °F /  6.7 °C 30.1 in /  1020.2 hPa Calm   1 mph /  1.6 km/h 83 % 0 in /  0.0 mm
01:22 48.9 °F /  9.4 °C 44.1 °F /  6.7 °C 30.1 in /  1020.2 hPa Calm     83 % 0 in /  0.0 mm
01:27 48.7 °F /  9.3 °C 43.9 °F /  6.6 °C 30.1 in /  1020.2 hPa Calm     83 % 0 in /  0.0 mm
01:32 48.4 °F /  9.1 °C 43.5 °F /  6.4 °C 30.1 in /  1020.2 hPa Calm     83 % 0 in /  0.0 mm
01:42 48.4 °F /  9.1 °C 44.1 °F /  6.7 °C 30.1 in /  1020.2 hPa Calm     85 % 0 in /  0.0 mm
01:52 49.3 °F /  9.6 °C 44.6 °F /  7.0 °C 30.1 in /  1019.9 hPa Calm     84 % 0 in /  0.0 mm
01:57 48.9 °F /  9.4 °C 44.1 °F /  6.7 °C 30.1 in /  1019.9 hPa Calm     83 % 0 in /  0.0 mm
02:02 48.9 °F /  9.4 °C 44.1 °F /  6.7 °C 30.1 in /  1019.9 hPa Calm     83 % 0 in /  0.0 mm
02:07 48.7 °F /  9.3 °C 43.9 °F /  6.6 °C 30.1 in /  1019.9 hPa Calm     83 % 0 in /  0.0 mm
02:12 48.6 °F /  9.2 °C 43.7 °F /  6.5 °C 30.1 in /  1019.9 hPa Calm     83 % 0 in /  0.0 mm
02:17 47.8 °F /  8.8 °C 43.9 °F /  6.6 °C 30.1 in /  1019.9 hPa Calm   1 mph /  1.6 km/h 86 % 0 in /  0.0 mm
02:22 48 °F /  8.9 °C 43.7 °F /  6.5 °C 30.1 in /  1019.9 hPa Calm   1 mph /  1.6 km/h 85 % 0 in /  0.0 mm
02:27 48 °F /  8.9 °C 43.7 °F /  6.5 °C 30.1 in /  1019.9 hPa Calm   1 mph /  1.6 km/h 85 % 0 in /  0.0 mm
02:32 48 °F /  8.9 °C 43.7 °F /  6.5 °C 30.1 in /  1019.9 hPa Calm   1 mph /  1.6 km/h 85 % 0 in /  0.0 mm
02:37 47.8 °F /  8.8 °C 43.9 °F /  6.6 °C 30.1 in /  1019.9 hPa Calm   1 mph /  1.6 km/h 86 % 0 in /  0.0 mm
02:42 48.4 °F /  9.1 °C 44.4 °F /  6.9 °C 30.1 in /  1019.9 hPa Calm   1 mph /  1.6 km/h 86 % 0 in /  0.0 mm
02:47 48 °F /  8.9 °C 43.7 °F /  6.5 °C 30.1 in /  1019.9 hPa Calm   1 mph /  1.6 km/h 85 % 0 in /  0.0 mm
02:52 48 °F /  8.9 °C 44.1 °F /  6.7 °C 30.1 in /  1019.9 hPa Calm   1 mph /  1.6 km/h 86 % 0 in /  0.0 mm
02:57 48 °F /  8.9 °C 43.7 °F /  6.5 °C 30.1 in /  1019.9 hPa Calm   1 mph /  1.6 km/h 85 % 0 in /  0.0 mm
03:02 47.7 °F /  8.7 °C 43.3 °F /  6.3 °C 30.1 in /  1019.9 hPa Calm   1 mph /  1.6 km/h 85 % 0 in /  0.0 mm
03:07 47.1 °F /  8.4 °C 42.8 °F /  6.0 °C 30.1 in /  1019.9 hPa Calm     85 % 0 in /  0.0 mm
03:12 46.8 °F /  8.2 °C 43.2 °F /  6.2 °C 30.1 in /  1019.9 hPa Calm     87 % 0 in /  0.0 mm
03:17 46.8 °F /  8.2 °C 43.2 °F /  6.2 °C 30.1 in /  1019.5 hPa Calm     87 % 0 in /  0.0 mm
03:22 46.2 °F /  7.9 °C 42.6 °F /  5.9 °C 30.1 in /  1019.5 hPa Calm     87 % 0 in /  0.0 mm
03:27 45.7 °F /  7.6 °C 42.1 °F /  5.6 °C 30.1 in /  1019.5 hPa Calm     87 % 0 in /  0.0 mm
03:32 45 °F /  7.2 °C 41.5 °F /  5.3 °C 30.1 in /  1019.5 hPa Calm   1 mph /  1.6 km/h 88 % 0 in /  0.0 mm
03:37 44.8 °F /  7.1 °C 41.7 °F /  5.4 °C 30.1 in /  1019.9 hPa Calm   1 mph /  1.6 km/h 89 % 0 in /  0.0 mm
03:42 44.4 °F /  6.9 °C 41.7 °F /  5.4 °C 30.1 in /  1019.9 hPa Calm   1 mph /  1.6 km/h 90 % 0 in /  0.0 mm
03:47 44.8 °F /  7.1 °C 42.3 °F /  5.7 °C 30.1 in /  1019.9 hPa Calm     91 % 0 in /  0.0 mm
03:52 45.1 °F /  7.3 °C 42.6 °F /  5.9 °C 30.1 in /  1019.9 hPa Calm     91 % 0 in /  0.0 mm
03:57 45.5 °F /  7.5 °C 43 °F /  6.1 °C 30.1 in /  1019.9 hPa Calm     91 % 0 in /  0.0 mm
04:02 46 °F /  7.8 °C 43.5 °F /  6.4 °C 30.1 in /  1019.5 hPa Calm   1 mph /  1.6 km/h 91 % 0 in /  0.0 mm
04:07 45.9 °F /  7.7 °C 42.8 °F /  6.0 °C 30.1 in /  1019.9 hPa Calm   1 mph /  1.6 km/h 89 % 0 in /  0.0 mm
04:12 45.1 °F /  7.3 °C 41.7 °F /  5.4 °C 30.1 in /  1019.9 hPa Calm   1 mph /  1.6 km/h 88 % 0 in /  0.0 mm
04:17 44.6 °F /  7.0 °C 41.2 °F /  5.1 °C 30.1 in /  1019.9 hPa Calm     88 % 0 in /  0.0 mm
04:22 44.1 °F /  6.7 °C 40.8 °F /  4.9 °C 30.1 in /  1019.9 hPa Calm     88 % 0 in /  0.0 mm
04:27 43.5 °F /  6.4 °C 40.5 °F /  4.7 °C 30.1 in /  1019.9 hPa Calm     89 % 0 in /  0.0 mm
04:32 43.2 °F /  6.2 °C 40.5 °F /  4.7 °C 30.1 in /  1019.9 hPa Calm   1 mph /  1.6 km/h 90 % 0 in /  0.0 mm
04:37 43.2 °F /  6.2 °C 40.6 °F /  4.8 °C 30.1 in /  1019.9 hPa Calm   1 mph /  1.6 km/h 91 % 0 in /  0.0 mm
04:42 43.2 °F /  6.2 °C 41 °F /  5.0 °C 30.1 in /  1019.9 hPa South 1 mph /  1.6 km/h 1 mph /  1.6 km/h 92 % 0 in /  0.0 mm
04:47 43.3 °F /  6.3 °C 41.2 °F /  5.1 °C 30.1 in /  1019.9 hPa Calm   2 mph /  3.2 km/h 92 % 0 in /  0.0 mm
04:52 43.3 °F /  6.3 °C 41.2 °F /  5.1 °C 30.1 in /  1019.9 hPa Calm   2 mph /  3.2 km/h 92 % 0 in /  0.0 mm
05:02 43 °F /  6.1 °C 40.8 °F /  4.9 °C 30.1 in /  1019.9 hPa Calm   2 mph /  3.2 km/h 92 % 0 in /  0.0 mm
05:12 42.4 °F /  5.8 °C 40.3 °F /  4.6 °C 30.1 in /  1019.9 hPa Calm   1 mph /  1.6 km/h 92 % 0 in /  0.0 mm
05:17 42.3 °F /  5.7 °C 40.1 °F /  4.5 °C 30.1 in /  1019.9 hPa Calm   1 mph /  1.6 km/h 92 % 0 in /  0.0 mm
05:22 42.1 °F /  5.6 °C 39.9 °F /  4.4 °C 30.1 in /  1019.9 hPa Calm   1 mph /  1.6 km/h 92 % 0 in /  0.0 mm
05:32 41.9 °F /  5.5 °C 40.1 °F /  4.5 °C 30.1 in /  1019.9 hPa Calm   1 mph /  1.6 km/h 93 % 0 in /  0.0 mm
05:37 42.3 °F /  5.7 °C 40.6 °F /  4.8 °C 30.1 in /  1019.9 hPa South 1 mph /  1.6 km/h   94 % 0 in /  0.0 mm
05:42 42.3 °F /  5.7 °C 40.5 °F /  4.7 °C 30.1 in /  1019.9 hPa South 1 mph /  1.6 km/h   93 % 0 in /  0.0 mm
05:47 42.1 °F /  5.6 °C 40.3 °F /  4.6 °C 30.1 in /  1019.9 hPa Calm   2 mph /  3.2 km/h 93 % 0 in /  0.0 mm
05:52 42.1 °F /  5.6 °C 40.3 °F /  4.6 °C 30.1 in /  1019.9 hPa Calm   2 mph /  3.2 km/h 93 % 0 in /  0.0 mm
06:02 41.5 °F /  5.3 °C 39.7 °F /  4.3 °C 30.1 in /  1019.9 hPa Calm   2 mph /  3.2 km/h 93 % 0 in /  0.0 mm
06:12 41.5 °F /  5.3 °C 39.9 °F /  4.4 °C 30.1 in /  1019.9 hPa SW 1 mph /  1.6 km/h 2 mph /  3.2 km/h 94 % 0 in /  0.0 mm
06:17 41.5 °F /  5.3 °C 39.9 °F /  4.4 °C 30.1 in /  1020.2 hPa Calm   2 mph /  3.2 km/h 94 % 0 in /  0.0 mm
06:22 41.2 °F /  5.1 °C 39.6 °F /  4.2 °C 30.1 in /  1019.9 hPa Calm   2 mph /  3.2 km/h 94 % 0 in /  0.0 mm
06:27 40.8 °F /  4.9 °C 39.2 °F /  4.0 °C 30.1 in /  1019.9 hPa Calm   2 mph /  3.2 km/h 94 % 0 in /  0.0 mm
06:32 40.8 °F /  4.9 °C 39.2 °F /  4.0 °C 30.1 in /  1019.9 hPa SSE 1 mph /  1.6 km/h 2 mph /  3.2 km/h 94 % 0 in /  0.0 mm
06:42 40.8 °F /  4.9 °C 39.2 °F /  4.0 °C 30.1 in /  1020.2 hPa Calm   2 mph /  3.2 km/h 94 % 0 in /  0.0 mm
06:52 40.8 °F /  4.9 °C 39.6 °F /  4.2 °C 30.1 in /  1020.2 hPa Calm   1 mph /  1.6 km/h 95 % 0 in /  0.0 mm
07:02 40.8 °F /  4.9 °C 39.6 °F /  4.2 °C 30.1 in /  1020.5 hPa Calm     95 % 0 in /  0.0 mm
07:12 41 °F /  5.0 °C 39.7 °F /  4.3 °C 30.1 in /  1020.5 hPa Calm     95 % 0 in /  0.0 mm
07:17 41.2 °F /  5.1 °C 39.9 °F /  4.4 °C 30.1 in /  1020.5 hPa Calm     95 % 0 in /  0.0 mm
07:22 41.5 °F /  5.3 °C 40.3 °F /  4.6 °C 30.1 in /  1020.5 hPa Calm     95 % 0 in /  0.0 mm
07:32 42.1 °F /  5.6 °C 40.8 °F /  4.9 °C 30.1 in /  1020.5 hPa WNW 2 mph /  3.2 km/h   95 % 0 in /  0.0 mm
07:37 41.7 °F /  5.4 °C 40.5 °F /  4.7 °C 30.1 in /  1020.5 hPa Calm   2 mph /  3.2 km/h 95 % 0 in /  0.0 mm
07:42 40.5 °F /  4.7 °C 38.7 °F /  3.7 °C 30.1 in /  1020.5 hPa North 2 mph /  3.2 km/h 2 mph /  3.2 km/h 93 % 0 in /  0.0 mm
07:52 41.4 °F /  5.2 °C 40.1 °F /  4.5 °C 30.2 in /  1020.9 hPa Calm   8 mph /  12.9 km/h 95 % 0 in /  0.0 mm
07:57 42.1 °F /  5.6 °C 40.8 °F /  4.9 °C 30.1 in /  1020.5 hPa Calm   5 mph /  8.0 km/h 95 % 0 in /  0.0 mm
08:02 42.6 °F /  5.9 °C 41.4 °F /  5.2 °C 30.2 in /  1021.2 hPa Calm   4 mph /  6.4 km/h 95 % 0 in /  0.0 mm
08:07 42.8 °F /  6.0 °C 41.2 °F /  5.1 °C 30.2 in /  1021.2 hPa North 1 mph /  1.6 km/h 3 mph /  4.8 km/h 94 % 0 in /  0.0 mm
08:12 43.2 °F /  6.2 °C 41.5 °F /  5.3 °C 30.2 in /  1021.2 hPa Calm   3 mph /  4.8 km/h 94 % 0 in /  0.0 mm
08:17 43.5 °F /  6.4 °C 41.9 °F /  5.5 °C 30.2 in /  1020.9 hPa Calm   2 mph /  3.2 km/h 94 % 0 in /  0.0 mm
08:22 44.1 °F /  6.7 °C 42.4 °F /  5.8 °C 30.2 in /  1021.2 hPa North 1 mph /  1.6 km/h 2 mph /  3.2 km/h 94 % 0 in /  0.0 mm
08:32 45.9 °F /  7.7 °C 44.2 °F /  6.8 °C 30.2 in /  1021.2 hPa Calm   2 mph /  3.2 km/h 94 % 0 in /  0.0 mm
08:42 46.8 °F /  8.2 °C 44.6 °F /  7.0 °C 30.2 in /  1021.2 hPa Calm   2 mph /  3.2 km/h 92 % 0 in /  0.0 mm
08:52 47.8 °F /  8.8 °C 45.3 °F /  7.4 °C 30.2 in /  1021.6 hPa Calm     91 % 0 in /  0.0 mm
08:57 48.6 °F /  9.2 °C 46 °F /  7.8 °C 30.2 in /  1021.2 hPa Calm   3 mph /  4.8 km/h 91 % 0 in /  0.0 mm
09:02 48.9 °F /  9.4 °C 45.9 °F /  7.7 °C 30.2 in /  1021.6 hPa Calm   3 mph /  4.8 km/h 89 % 0 in /  0.0 mm
09:12 48.9 °F /  9.4 °C 46 °F /  7.8 °C 30.2 in /  1021.6 hPa North 3 mph /  4.8 km/h 3 mph /  4.8 km/h 90 % 0 in /  0.0 mm
09:17 48.7 °F /  9.3 °C 46.2 °F /  7.9 °C 30.2 in /  1021.6 hPa NNE 4 mph /  6.4 km/h 5 mph /  8.0 km/h 91 % 0 in /  0.0 mm
09:22 48.6 °F /  9.2 °C 46 °F /  7.8 °C 30.2 in /  1021.6 hPa NNW 7 mph /  11.3 km/h 7 mph /  11.3 km/h 91 % 0 in /  0.0 mm
09:32 48 °F /  8.9 °C 45.5 °F /  7.5 °C 30.2 in /  1021.6 hPa NNW 3 mph /  4.8 km/h 7 mph /  11.3 km/h 91 % 0 in /  0.0 mm
09:37 47.8 °F /  8.8 °C 45.3 °F /  7.4 °C 30.2 in /  1021.9 hPa NNW 7 mph /  11.3 km/h 7 mph /  11.3 km/h 91 % 0 in /  0.0 mm
09:42 47.1 °F /  8.4 °C 45 °F /  7.2 °C 30.2 in /  1021.9 hPa WNW 2 mph /  3.2 km/h 7 mph /  11.3 km/h 92 % 0 in /  0.0 mm
09:52 46 °F /  7.8 °C 44.1 °F /  6.7 °C 30.2 in /  1021.9 hPa NNW 6 mph /  9.7 km/h 9 mph /  14.5 km/h 93 % 0 in /  0.0 mm
10:02 45.3 °F /  7.4 °C 43.7 °F /  6.5 °C 30.2 in /  1022.2 hPa North 11 mph /  17.7 km/h 14 mph /  22.5 km/h 94 % 0 in /  0.0 mm
10:12 45.3 °F /  7.4 °C 44.1 °F /  6.7 °C 30.2 in /  1022.2 hPa North 8 mph /  12.9 km/h 14 mph /  22.5 km/h 95 % 0 in /  0.0 mm
10:17 45.5 °F /  7.5 °C 44.2 °F /  6.8 °C 30.2 in /  1022.2 hPa NW 5 mph /  8.0 km/h 15 mph /  24.1 km/h 95 % 0 in /  0.0 mm
10:22 45.7 °F /  7.6 °C 44.4 °F /  6.9 °C 30.2 in /  1022.2 hPa NW 6 mph /  9.7 km/h 15 mph /  24.1 km/h 95 % 0 in /  0.0 mm
10:32 46 °F /  7.8 °C 44.6 °F /  7.0 °C 30.2 in /  1022.2 hPa NNW 5 mph /  8.0 km/h 10 mph /  16.1 km/h 95 % 0 in /  0.0 mm
10:37 46 °F /  7.8 °C 44.4 °F /  6.9 °C 30.2 in /  1022.2 hPa NNE 4 mph /  6.4 km/h 9 mph /  14.5 km/h 94 % 0 in /  0.0 mm
10:42 46.2 °F /  7.9 °C 44.6 °F /  7.0 °C 30.2 in /  1022.6 hPa NNW 5 mph /  8.0 km/h 9 mph /  14.5 km/h 94 % 0 in /  0.0 mm
10:52 46.6 °F /  8.1 °C 45 °F /  7.2 °C 30.2 in /  1022.6 hPa WNW 2 mph /  3.2 km/h 8 mph /  12.9 km/h 94 % 0 in /  0.0 mm
10:57 46.8 °F /  8.2 °C 45.1 °F /  7.3 °C 30.2 in /  1022.6 hPa Calm   9 mph /  14.5 km/h 94 % 0 in /  0.0 mm
11:02 46.8 °F /  8.2 °C 44.8 °F /  7.1 °C 30.2 in /  1022.6 hPa NNW 2 mph /  3.2 km/h 9 mph /  14.5 km/h 93 % 0 in /  0.0 mm
11:12 47.1 °F /  8.4 °C 45.1 °F /  7.3 °C 30.2 in /  1022.2 hPa NNW 3 mph /  4.8 km/h 9 mph /  14.5 km/h 93 % 0 in /  0.0 mm
11:17 47.1 °F /  8.4 °C 45.1 °F /  7.3 °C 30.2 in /  1022.2 hPa North 2 mph /  3.2 km/h 5 mph /  8.0 km/h 93 % 0 in /  0.0 mm
11:22 47.3 °F /  8.5 °C 45.3 °F /  7.4 °C 30.2 in /  1022.6 hPa North 4 mph /  6.4 km/h 5 mph /  8.0 km/h 93 % 0 in /  0.0 mm
11:27 47.3 °F /  8.5 °C 45.3 °F /  7.4 °C 30.2 in /  1022.6 hPa NNE 5 mph /  8.0 km/h 5 mph /  8.0 km/h 93 % 0 in /  0.0 mm
11:32 47.3 °F /  8.5 °C 45.3 °F /  7.4 °C 30.2 in /  1022.6 hPa Calm   6 mph /  9.7 km/h 93 % 0 in /  0.0 mm
11:42 47.3 °F /  8.5 °C 45.3 °F /  7.4 °C 30.2 in /  1022.6 hPa NNW 4 mph /  6.4 km/h 6 mph /  9.7 km/h 93 % 0 in /  0.0 mm
11:47 47.3 °F /  8.5 °C 45.3 °F /  7.4 °C 30.2 in /  1022.6 hPa NNW 3 mph /  4.8 km/h 8 mph /  12.9 km/h 93 % 0 in /  0.0 mm
11:52 47.3 °F /  8.5 °C 45.3 °F /  7.4 °C 30.2 in /  1022.6 hPa NNW 4 mph /  6.4 km/h 8 mph /  12.9 km/h 93 % 0 in /  0.0 mm
11:57 47.3 °F /  8.5 °C 45.3 °F /  7.4 °C 30.2 in /  1022.6 hPa NNW 4 mph /  6.4 km/h 6 mph /  9.7 km/h 93 % 0 in /  0.0 mm
12:02 47.3 °F /  8.5 °C 45.3 °F /  7.4 °C 30.2 in /  1022.6 hPa NW 2 mph /  3.2 km/h 6 mph /  9.7 km/h 93 % 0 in /  0.0 mm
12:07 47.5 °F /  8.6 °C 45.5 °F /  7.5 °C 30.2 in /  1022.6 hPa NW 1 mph /  1.6 km/h 5 mph /  8.0 km/h 93 % 0 in /  0.0 mm
12:12 47.7 °F /  8.7 °C 45.7 °F /  7.6 °C 30.2 in /  1022.6 hPa Calm   5 mph /  8.0 km/h 93 % 0 in /  0.0 mm
12:17 47.7 °F /  8.7 °C 45.7 °F /  7.6 °C 30.2 in /  1022.6 hPa WNW 3 mph /  4.8 km/h 5 mph /  8.0 km/h 93 % 0 in /  0.0 mm
12:22 47.7 °F /  8.7 °C 45.5 °F /  7.5 °C 30.2 in /  1022.6 hPa NW 1 mph /  1.6 km/h 5 mph /  8.0 km/h 92 % 0 in /  0.0 mm
12:32 47.8 °F /  8.8 °C 45.7 °F /  7.6 °C 30.2 in /  1022.6 hPa WNW 3 mph /  4.8 km/h 7 mph /  11.3 km/h 92 % 0 in /  0.0 mm
12:42 48.4 °F /  9.1 °C 46.2 °F /  7.9 °C 30.2 in /  1022.2 hPa NNE 4 mph /  6.4 km/h 7 mph /  11.3 km/h 92 % 0 in /  0.0 mm
12:47 48.6 °F /  9.2 °C 46.4 °F /  8.0 °C 30.2 in /  1022.6 hPa NNW 5 mph /  8.0 km/h 7 mph /  11.3 km/h 92 % 0 in /  0.0 mm
12:52 48.7 °F /  9.3 °C 46.2 °F /  7.9 °C 30.2 in /  1022.6 hPa NNW 4 mph /  6.4 km/h 7 mph /  11.3 km/h 91 % 0 in /  0.0 mm
12:57 48.7 °F /  9.3 °C 46.2 °F /  7.9 °C 30.2 in /  1022.6 hPa NW 4 mph /  6.4 km/h 7 mph /  11.3 km/h 91 % 0 in /  0.0 mm
13:02 48.9 °F /  9.4 °C 46.4 °F /  8.0 °C 30.2 in /  1022.9 hPa NW 4 mph /  6.4 km/h 7 mph /  11.3 km/h 91 % 0 in /  0.0 mm
13:12 49.6 °F /  9.8 °C 46.8 °F /  8.2 °C 30.2 in /  1022.9 hPa NNW 4 mph /  6.4 km/h 6 mph /  9.7 km/h 90 % 0 in /  0.0 mm
13:17 49.5 °F /  9.7 °C 46.6 °F /  8.1 °C 30.2 in /  1022.9 hPa NW 3 mph /  4.8 km/h 6 mph /  9.7 km/h 90 % 0 in /  0.0 mm
13:22 49.3 °F /  9.6 °C 46.4 °F /  8.0 °C 30.2 in /  1022.9 hPa West 4 mph /  6.4 km/h 6 mph /  9.7 km/h 90 % 0 in /  0.0 mm
13:27 49.3 °F /  9.6 °C 46.4 °F /  8.0 °C 30.2 in /  1022.9 hPa NW 4 mph /  6.4 km/h 7 mph /  11.3 km/h 90 % 0 in /  0.0 mm
13:32 49.1 °F /  9.5 °C 46.2 °F /  7.9 °C 30.2 in /  1022.6 hPa NW 1 mph /  1.6 km/h 8 mph /  12.9 km/h 90 % 0 in /  0.0 mm
13:37 49.3 °F /  9.6 °C 46.8 °F /  8.2 °C 30.2 in /  1022.9 hPa NNW 2 mph /  3.2 km/h 8 mph /  12.9 km/h 91 % 0 in /  0.0 mm
13:42 49.3 °F /  9.6 °C 46.8 °F /  8.2 °C 30.2 in /  1022.9 hPa NW 2 mph /  3.2 km/h 6 mph /  9.7 km/h 91 % 0 in /  0.0 mm
13:47 49.3 °F /  9.6 °C 46.4 °F /  8.0 °C 30.2 in /  1022.6 hPa NW 2 mph /  3.2 km/h 6 mph /  9.7 km/h 90 % 0 in /  0.0 mm
13:52 49.5 °F /  9.7 °C 46.6 °F /  8.1 °C 30.2 in /  1022.6 hPa NW 4 mph /  6.4 km/h 6 mph /  9.7 km/h 90 % 0 in /  0.0 mm
14:02 49.5 °F /  9.7 °C 46.6 °F /  8.1 °C 30.2 in /  1022.6 hPa WNW 8 mph /  12.9 km/h 8 mph /  12.9 km/h 90 % 0 in /  0.0 mm
14:07 49.6 °F /  9.8 °C 46.6 °F /  8.1 °C 30.2 in /  1022.2 hPa WNW 5 mph /  8.0 km/h 9 mph /  14.5 km/h 89 % 0 in /  0.0 mm
14:12 49.6 °F /  9.8 °C 46.6 °F /  8.1 °C 30.2 in /  1022.2 hPa NNW 2 mph /  3.2 km/h 9 mph /  14.5 km/h 89 % 0 in /  0.0 mm
14:17 49.6 °F /  9.8 °C 46.6 °F /  8.1 °C 30.2 in /  1022.2 hPa WNW 4 mph /  6.4 km/h 9 mph /  14.5 km/h 89 % 0 in /  0.0 mm
14:22 49.8 °F /  9.9 °C 46.8 °F /  8.2 °C 30.2 in /  1022.2 hPa NW 4 mph /  6.4 km/h 7 mph /  11.3 km/h 89 % 0 in /  0.0 mm
14:32 49.6 °F /  9.8 °C 46.2 °F /  7.9 °C 30.2 in /  1021.9 hPa WNW 2 mph /  3.2 km/h 8 mph /  12.9 km/h 88 % 0 in /  0.0 mm
14:42 50.4 °F /  10.2 °C 46.9 °F /  8.3 °C 30.2 in /  1021.9 hPa NNW 2 mph /  3.2 km/h 6 mph /  9.7 km/h 88 % 0 in /  0.0 mm
14:47 50.5 °F /  10.3 °C 46.8 °F /  8.2 °C 30.2 in /  1021.9 hPa WNW 2 mph /  3.2 km/h 4 mph /  6.4 km/h 87 % 0 in /  0.0 mm
14:52 51.1 °F /  10.6 °C 47.7 °F /  8.7 °C 30.2 in /  1021.9 hPa West 5 mph /  8.0 km/h 5 mph /  8.0 km/h 88 % 0 in /  0.0 mm
15:02 51.4 °F /  10.8 °C 46.8 °F /  8.2 °C 30.2 in /  1021.6 hPa WNW 2 mph /  3.2 km/h 6 mph /  9.7 km/h 84 % 0 in /  0.0 mm
15:07 51.8 °F /  11.0 °C 47.1 °F /  8.4 °C 30.2 in /  1021.9 hPa West 1 mph /  1.6 km/h 6 mph /  9.7 km/h 84 % 0 in /  0.0 mm
15:12 52 °F /  11.1 °C 47.3 °F /  8.5 °C 30.2 in /  1021.6 hPa North 1 mph /  1.6 km/h 4 mph /  6.4 km/h 84 % 0 in /  0.0 mm
15:17 52 °F /  11.1 °C 47.3 °F /  8.5 °C 30.2 in /  1021.6 hPa North 1 mph /  1.6 km/h 4 mph /  6.4 km/h 84 % 0 in /  0.0 mm
15:22 52 °F /  11.1 °C 46.9 °F /  8.3 °C 30.2 in /  1021.6 hPa Calm   4 mph /  6.4 km/h 83 % 0 in /  0.0 mm
15:27 52.2 °F /  11.2 °C 47.5 °F /  8.6 °C 30.2 in /  1021.2 hPa WNW 1 mph /  1.6 km/h 4 mph /  6.4 km/h 84 % 0 in /  0.0 mm
15:32 52.3 °F /  11.3 °C 47.3 °F /  8.5 °C 30.2 in /  1021.6 hPa Calm   4 mph /  6.4 km/h 83 % 0 in /  0.0 mm
15:37 52.3 °F /  11.3 °C 46.9 °F /  8.3 °C 30.2 in /  1021.6 hPa NW 2 mph /  3.2 km/h 5 mph /  8.0 km/h 82 % 0 in /  0.0 mm
15:42 52.3 °F /  11.3 °C 47.3 °F /  8.5 °C 30.2 in /  1021.6 hPa NNW 3 mph /  4.8 km/h 5 mph /  8.0 km/h 83 % 0 in /  0.0 mm
15:47 52 °F /  11.1 °C 46.9 °F /  8.3 °C 30.2 in /  1021.6 hPa NNW 2 mph /  3.2 km/h 6 mph /  9.7 km/h 83 % 0 in /  0.0 mm
15:57 52 °F /  11.1 °C 47.3 °F /  8.5 °C 30.2 in /  1021.6 hPa NW 5 mph /  8.0 km/h 8 mph /  12.9 km/h 84 % 0 in /  0.0 mm
16:02 51.8 °F /  11.0 °C 47.1 °F /  8.4 °C 30.2 in /  1021.6 hPa NW 1 mph /  1.6 km/h 8 mph /  12.9 km/h 84 % 0 in /  0.0 mm
16:07 51.8 °F /  11.0 °C 47.1 °F /  8.4 °C 30.2 in /  1021.6 hPa WNW 1 mph /  1.6 km/h 7 mph /  11.3 km/h 84 % 0 in /  0.0 mm
16:12 51.8 °F /  11.0 °C 47.1 °F /  8.4 °C 30.2 in /  1021.6 hPa NNE 3 mph /  4.8 km/h 7 mph /  11.3 km/h 84 % 0 in /  0.0 mm
16:17 52 °F /  11.1 °C 46.9 °F /  8.3 °C 30.2 in /  1021.9 hPa NNW 3 mph /  4.8 km/h 7 mph /  11.3 km/h 83 % 0 in /  0.0 mm
16:22 52 °F /  11.1 °C 47.3 °F /  8.5 °C 30.2 in /  1021.6 hPa North 2 mph /  3.2 km/h 7 mph /  11.3 km/h 84 % 0 in /  0.0 mm
16:27 52.2 °F /  11.2 °C 47.1 °F /  8.4 °C 30.2 in /  1021.6 hPa NNE 5 mph /  8.0 km/h 7 mph /  11.3 km/h 83 % 0 in /  0.0 mm
16:32 52.2 °F /  11.2 °C 47.1 °F /  8.4 °C 30.2 in /  1021.9 hPa NNW 2 mph /  3.2 km/h 7 mph /  11.3 km/h 83 % 0 in /  0.0 mm
16:37 52.3 °F /  11.3 °C 47.3 °F /  8.5 °C 30.2 in /  1021.9 hPa NW 1 mph /  1.6 km/h 7 mph /  11.3 km/h 83 % 0 in /  0.0 mm
16:42 52.3 °F /  11.3 °C 46.9 °F /  8.3 °C 30.2 in /  1021.9 hPa NNW 1 mph /  1.6 km/h 7 mph /  11.3 km/h 82 % 0 in /  0.0 mm
16:47 52.3 °F /  11.3 °C 47.3 °F /  8.5 °C 30.2 in /  1021.6 hPa NE 2 mph /  3.2 km/h 6 mph /  9.7 km/h 83 % 0 in /  0.0 mm
16:52 52.2 °F /  11.2 °C 46.8 °F /  8.2 °C 30.2 in /  1021.9 hPa WNW 3 mph /  4.8 km/h 8 mph /  12.9 km/h 82 % 0 in /  0.0 mm
16:57 52.2 °F /  11.2 °C 46.8 °F /  8.2 °C 30.2 in /  1021.9 hPa NNW 4 mph /  6.4 km/h 8 mph /  12.9 km/h 82 % 0 in /  0.0 mm
17:02 52.2 °F /  11.2 °C 46.8 °F /  8.2 °C 30.2 in /  1021.6 hPa NW 1 mph /  1.6 km/h 8 mph /  12.9 km/h 82 % 0 in /  0.0 mm
17:07 52.2 °F /  11.2 °C 46.6 °F /  8.1 °C 30.2 in /  1021.6 hPa NW 3 mph /  4.8 km/h 7 mph /  11.3 km/h 81 % 0 in /  0.0 mm
17:12 52 °F /  11.1 °C 46.4 °F /  8.0 °C 30.2 in /  1021.6 hPa NNW 5 mph /  8.0 km/h 9 mph /  14.5 km/h 81 % 0 in /  0.0 mm
17:17 52 °F /  11.1 °C 46 °F /  7.8 °C 30.2 in /  1021.6 hPa NNE 5 mph /  8.0 km/h 9 mph /  14.5 km/h 80 % 0 in /  0.0 mm
17:22 52 °F /  11.1 °C 46.4 °F /  8.0 °C 30.2 in /  1021.6 hPa NW 2 mph /  3.2 km/h 9 mph /  14.5 km/h 81 % 0 in /  0.0 mm
17:27 52 °F /  11.1 °C 46 °F /  7.8 °C 30.2 in /  1021.6 hPa NNW 3 mph /  4.8 km/h 9 mph /  14.5 km/h 80 % 0 in /  0.0 mm
17:32 52 °F /  11.1 °C 46 °F /  7.8 °C 30.2 in /  1021.6 hPa NW 4 mph /  6.4 km/h 8 mph /  12.9 km/h 80 % 0 in /  0.0 mm
17:37 52 °F /  11.1 °C 45.7 °F /  7.6 °C 30.2 in /  1021.6 hPa NW 6 mph /  9.7 km/h 8 mph /  12.9 km/h 79 % 0 in /  0.0 mm
17:42 52 °F /  11.1 °C 45.7 °F /  7.6 °C 30.2 in /  1021.6 hPa NW 5 mph /  8.0 km/h 7 mph /  11.3 km/h 79 % 0 in /  0.0 mm
17:47 52 °F /  11.1 °C 46 °F /  7.8 °C 30.2 in /  1021.6 hPa North 3 mph /  4.8 km/h 7 mph /  11.3 km/h 80 % 0 in /  0.0 mm
17:52 52 °F /  11.1 °C 46 °F /  7.8 °C 30.2 in /  1021.9 hPa NNW 3 mph /  4.8 km/h 7 mph /  11.3 km/h 80 % 0 in /  0.0 mm
17:57 51.6 °F /  10.9 °C 45.7 °F /  7.6 °C 30.2 in /  1021.9 hPa North 7 mph /  11.3 km/h 7 mph /  11.3 km/h 80 % 0 in /  0.0 mm
18:02 51.3 °F /  10.7 °C 45.7 °F /  7.6 °C 30.2 in /  1021.9 hPa North 6 mph /  9.7 km/h 11 mph /  17.7 km/h 81 % 0 in /  0.0 mm
18:07 51.1 °F /  10.6 °C 45.5 °F /  7.5 °C 30.2 in /  1021.6 hPa North 5 mph /  8.0 km/h 11 mph /  17.7 km/h 81 % 0 in /  0.0 mm
18:12 50.7 °F /  10.4 °C 45.5 °F /  7.5 °C 30.2 in /  1021.6 hPa NNW 3 mph /  4.8 km/h 11 mph /  17.7 km/h 82 % 0 in /  0.0 mm
18:17 50.5 °F /  10.3 °C 45.3 °F /  7.4 °C 30.2 in /  1021.6 hPa NNW 2 mph /  3.2 km/h 11 mph /  17.7 km/h 82 % 0 in /  0.0 mm
18:22 50.5 °F /  10.3 °C 45.3 °F /  7.4 °C 30.2 in /  1021.9 hPa NNW 1 mph /  1.6 km/h 10 mph /  16.1 km/h 82 % 0 in /  0.0 mm
18:32 50.4 °F /  10.2 °C 45.1 °F /  7.3 °C 30.2 in /  1021.9 hPa WNW 2 mph /  3.2 km/h 8 mph /  12.9 km/h 82 % 0 in /  0.0 mm
18:42 50.2 °F /  10.1 °C 45 °F /  7.2 °C 30.2 in /  1021.9 hPa West 3 mph /  4.8 km/h 6 mph /  9.7 km/h 82 % 0 in /  0.0 mm
18:47 49.8 °F /  9.9 °C 44.2 °F /  6.8 °C 30.2 in /  1021.6 hPa NNE 4 mph /  6.4 km/h 6 mph /  9.7 km/h 81 % 0 in /  0.0 mm
18:52 49.6 °F /  9.8 °C 44.1 °F /  6.7 °C 30.2 in /  1021.6 hPa WNW 1 mph /  1.6 km/h 5 mph /  8.0 km/h 81 % 0 in /  0.0 mm
18:57 49.5 °F /  9.7 °C 43.9 °F /  6.6 °C 30.2 in /  1021.6 hPa NNW 1 mph /  1.6 km/h 5 mph /  8.0 km/h 81 % 0 in /  0.0 mm
19:02 49.3 °F /  9.6 °C 44.1 °F /  6.7 °C 30.2 in /  1021.6 hPa Calm   5 mph /  8.0 km/h 82 % 0 in /  0.0 mm
19:07 48.9 °F /  9.4 °C 43.7 °F /  6.5 °C 30.2 in /  1021.6 hPa NW 1 mph /  1.6 km/h 3 mph /  4.8 km/h 82 % 0 in /  0.0 mm
19:12 48.7 °F /  9.3 °C 43.5 °F /  6.4 °C 30.2 in /  1021.6 hPa WNW 1 mph /  1.6 km/h 2 mph /  3.2 km/h 82 % 0 in /  0.0 mm
19:17 48.4 °F /  9.1 °C 43.5 °F /  6.4 °C 30.2 in /  1021.6 hPa Calm   2 mph /  3.2 km/h 83 % 0 in /  0.0 mm
19:22 48 °F /  8.9 °C 43.3 °F /  6.3 °C 30.2 in /  1021.6 hPa Calm   2 mph /  3.2 km/h 84 % 0 in /  0.0 mm
19:27 47.8 °F /  8.8 °C 43.2 °F /  6.2 °C 30.2 in /  1021.6 hPa Calm   1 mph /  1.6 km/h 84 % 0 in /  0.0 mm
19:32 47.7 °F /  8.7 °C 43 °F /  6.1 °C 30.2 in /  1021.6 hPa Calm     84 % 0 in /  0.0 mm
19:37 46.9 °F /  8.3 °C 42.4 °F /  5.8 °C 30.2 in /  1021.6 hPa Calm   1 mph /  1.6 km/h 84 % 0 in /  0.0 mm
19:42 46.8 °F /  8.2 °C 42.8 °F /  6.0 °C 30.2 in /  1021.6 hPa Calm   1 mph /  1.6 km/h 86 % 0 in /  0.0 mm
19:52 46.8 °F /  8.2 °C 42.8 °F /  6.0 °C 30.2 in /  1021.2 hPa Calm   1 mph /  1.6 km/h 86 % 0 in /  0.0 mm
19:57 46.6 °F /  8.1 °C 42.6 °F /  5.9 °C 30.2 in /  1021.2 hPa Calm   1 mph /  1.6 km/h 86 % 0 in /  0.0 mm
20:02 46.6 °F /  8.1 °C 43 °F /  6.1 °C 30.2 in /  1021.2 hPa Calm   1 mph /  1.6 km/h 87 % 0 in /  0.0 mm
20:12 46.4 °F /  8.0 °C 43 °F /  6.1 °C 30.2 in /  1021.6 hPa Calm     88 % 0 in /  0.0 mm
20:17 46.2 °F /  7.9 °C 42.8 °F /  6.0 °C 30.2 in /  1021.6 hPa Calm     88 % 0 in /  0.0 mm
20:22 46.6 °F /  8.1 °C 43.2 °F /  6.2 °C 30.2 in /  1021.6 hPa Calm     88 % 0 in /  0.0 mm
20:27 45.9 °F /  7.7 °C 42.3 °F /  5.7 °C 30.2 in /  1021.6 hPa Calm     87 % 0 in /  0.0 mm
20:32 45.3 °F /  7.4 °C 42.3 °F /  5.7 °C 30.2 in /  1021.6 hPa Calm     89 % 0 in /  0.0 mm
20:37 45.3 °F /  7.4 °C 42.6 °F /  5.9 °C 30.2 in /  1021.6 hPa Calm     90 % 0 in /  0.0 mm
20:42 45.5 °F /  7.5 °C 42.8 °F /  6.0 °C 30.2 in /  1021.6 hPa Calm     90 % 0 in /  0.0 mm
20:47 45.7 °F /  7.6 °C 43 °F /  6.1 °C 30.2 in /  1021.6 hPa West 1 mph /  1.6 km/h 3 mph /  4.8 km/h 90 % 0 in /  0.0 mm
20:52 45.9 °F /  7.7 °C 42.8 °F /  6.0 °C 30.2 in /  1021.6 hPa West 1 mph /  1.6 km/h 3 mph /  4.8 km/h 89 % 0 in /  0.0 mm
20:57 45.7 °F /  7.6 °C 42.6 °F /  5.9 °C 30.2 in /  1021.6 hPa Calm   3 mph /  4.8 km/h 89 % 0 in /  0.0 mm
21:02 45.7 °F /  7.6 °C 43 °F /  6.1 °C 30.2 in /  1021.6 hPa WSW 1 mph /  1.6 km/h 2 mph /  3.2 km/h 90 % 0 in /  0.0 mm
21:07 45.7 °F /  7.6 °C 43 °F /  6.1 °C 30.2 in /  1021.6 hPa WNW 2 mph /  3.2 km/h 2 mph /  3.2 km/h 90 % 0 in /  0.0 mm
21:12 46.2 °F /  7.9 °C 43.5 °F /  6.4 °C 30.2 in /  1021.6 hPa WNW 2 mph /  3.2 km/h 2 mph /  3.2 km/h 90 % 0 in /  0.0 mm
21:17 46.6 °F /  8.1 °C 43.5 °F /  6.4 °C 30.2 in /  1021.6 hPa WNW 3 mph /  4.8 km/h 3 mph /  4.8 km/h 89 % 0 in /  0.0 mm
21:22 46.8 °F /  8.2 °C 43.3 °F /  6.3 °C 30.2 in /  1021.9 hPa West 2 mph /  3.2 km/h 3 mph /  4.8 km/h 88 % 0 in /  0.0 mm
21:27 47.1 °F /  8.4 °C 43.7 °F /  6.5 °C 30.2 in /  1021.9 hPa WNW 2 mph /  3.2 km/h 3 mph /  4.8 km/h 88 % 0 in /  0.0 mm
21:32 47.3 °F /  8.5 °C 43.7 °F /  6.5 °C 30.2 in /  1021.9 hPa WNW 2 mph /  3.2 km/h 3 mph /  4.8 km/h 87 % 0 in /  0.0 mm
21:42 47.5 °F /  8.6 °C 43.5 °F /  6.4 °C 30.2 in /  1021.9 hPa WSW 1 mph /  1.6 km/h 3 mph /  4.8 km/h 86 % 0 in /  0.0 mm
21:47 47.5 °F /  8.6 °C 43.5 °F /  6.4 °C 30.2 in /  1021.9 hPa West 2 mph /  3.2 km/h 2 mph /  3.2 km/h 86 % 0 in /  0.0 mm
21:57 47.7 °F /  8.7 °C 43.3 °F /  6.3 °C 30.2 in /  1021.9 hPa West 3 mph /  4.8 km/h 3 mph /  4.8 km/h 85 % 0 in /  0.0 mm
22:02 47.8 °F /  8.8 °C 43.2 °F /  6.2 °C 30.2 in /  1021.9 hPa West 2 mph /  3.2 km/h 7 mph /  11.3 km/h 84 % 0 in /  0.0 mm
22:07 47.8 °F /  8.8 °C 43 °F /  6.1 °C 30.2 in /  1021.9 hPa WNW 7 mph /  11.3 km/h 7 mph /  11.3 km/h 83 % 0 in /  0.0 mm
22:12 47.8 °F /  8.8 °C 42.6 °F /  5.9 °C 30.2 in /  1021.9 hPa West 3 mph /  4.8 km/h 8 mph /  12.9 km/h 82 % 0 in /  0.0 mm
22:17 47.8 °F /  8.8 °C 42.6 °F /  5.9 °C 30.2 in /  1021.9 hPa WSW 4 mph /  6.4 km/h 8 mph /  12.9 km/h 82 % 0 in /  0.0 mm
22:27 47.5 °F /  8.6 °C 42.3 °F /  5.7 °C 30.2 in /  1022.2 hPa West 2 mph /  3.2 km/h 7 mph /  11.3 km/h 82 % 0 in /  0.0 mm
22:32 47.5 °F /  8.6 °C 42.3 °F /  5.7 °C 30.2 in /  1021.9 hPa West 2 mph /  3.2 km/h 6 mph /  9.7 km/h 82 % 0 in /  0.0 mm
22:42 46.9 °F /  8.3 °C 41.7 °F /  5.4 °C 30.2 in /  1021.9 hPa West 2 mph /  3.2 km/h 5 mph /  8.0 km/h 82 % 0 in /  0.0 mm
22:47 46.8 °F /  8.2 °C 41.5 °F /  5.3 °C 30.2 in /  1021.9 hPa West 1 mph /  1.6 km/h 5 mph /  8.0 km/h 82 % 0 in /  0.0 mm
22:52 46.6 °F /  8.1 °C 41.4 °F /  5.2 °C 30.2 in /  1021.9 hPa WSW 1 mph /  1.6 km/h 4 mph /  6.4 km/h 82 % 0 in /  0.0 mm
22:57 46.6 °F /  8.1 °C 41.4 °F /  5.2 °C 30.2 in /  1021.6 hPa SW 1 mph /  1.6 km/h 3 mph /  4.8 km/h 82 % 0 in /  0.0 mm
23:02 46.6 °F /  8.1 °C 41.4 °F /  5.2 °C 30.2 in /  1021.6 hPa SW 2 mph /  3.2 km/h 3 mph /  4.8 km/h 82 % 0 in /  0.0 mm
23:07 46.6 °F /  8.1 °C 41.4 °F /  5.2 °C 30.2 in /  1021.6 hPa SW 1 mph /  1.6 km/h 5 mph /  8.0 km/h 82 % 0 in /  0.0 mm
23:12 46.4 °F /  8.0 °C 41.2 °F /  5.1 °C 30.2 in /  1021.6 hPa WSW 3 mph /  4.8 km/h 4 mph /  6.4 km/h 82 % 0 in /  0.0 mm
23:17 46.4 °F /  8.0 °C 40.8 °F /  4.9 °C 30.2 in /  1021.6 hPa SW 2 mph /  3.2 km/h 4 mph /  6.4 km/h 81 % 0 in /  0.0 mm
23:22 46.2 °F /  7.9 °C 41 °F /  5.0 °C 30.2 in /  1021.6 hPa WSW 1 mph /  1.6 km/h 4 mph /  6.4 km/h 82 % 0 in /  0.0 mm
23:27 46 °F /  7.8 °C 40.8 °F /  4.9 °C 30.2 in /  1021.6 hPa West 2 mph /  3.2 km/h 4 mph /  6.4 km/h 82 % 0 in /  0.0 mm
23:32 45.9 °F /  7.7 °C 40.6 °F /  4.8 °C 30.2 in /  1021.9 hPa SW 1 mph /  1.6 km/h 4 mph /  6.4 km/h 82 % 0 in /  0.0 mm
23:37 45.9 °F /  7.7 °C 41 °F /  5.0 °C 30.2 in /  1021.6 hPa Calm   4 mph /  6.4 km/h 83 % 0 in /  0.0 mm
23:42 45.7 °F /  7.6 °C 40.8 °F /  4.9 °C 30.2 in /  1021.6 hPa Calm   3 mph /  4.8 km/h 83 % 0 in /  0.0 mm
23:47 45.5 °F /  7.5 °C 40.6 °F /  4.8 °C 30.2 in /  1021.6 hPa West 2 mph /  3.2 km/h 5 mph /  8.0 km/h 83 % 0 in /  0.0 mm
23:52 45.3 °F /  7.4 °C 40.5 °F /  4.7 °C 30.2 in /  1021.6 hPa WSW 4 mph /  6.4 km/h 5 mph /  8.0 km/h 83 % 0 in /  0.0 mm
23:57 45.3 °F /  7.4 °C 40.8 °F /  4.9 °C 30.2 in /  1021.6 hPa WSW 4 mph /  6.4 km/h 5 mph /  8.0 km/h 84 % 0 in /  0.0 mm
Meteo18
Compliments of Weather Underground - 4 mb

Script developed by  Jim McMurry - jmcmurry@mwt.net Adapted for the template by  Wim van der Kuil - Leuven-Template.eu

You find our weather info also at:

European Weather Network

Weather Underground

Equipment we use:

Weather-station
Davis Vue

Weather-program
Meteohub

Weather-server
Raspberry PI 2 B+

Provider
1 and 1

Davis Vue

Meteohub

Raspberry PI 2 B+

1 and 1